Tyrone, New Mexico
Current Conditions -  °F | °C
As of 10:55 AM on Saturday 25 Oct 2014 (Local Time) from KSVC Reporting Station
Clear Clear  
Wind Chill: 73°   Ceiling: Unl
Heat Index: 73°   Visibility: 10mi
Dew Point: 39°   Wind: 3mph
Humidity: 29%   Direction: 190°S
Pressure: 30.35"   Gusts: NA
Location:  32.66°N, 108.36°W
Report Text: KSVC 251655Z AUTO 19003KT 10SM CLR 23/04 A3035 RMK AO2
Loading
Personal Weather Stations






























Interactive Weather Map
Tropical Storm Tracking
New forecast layout! Learn more

10-Day Weather Forecast

Advertisements
Track Severe Weather on mobile